Time;durP1;ratioP1;P1;durP2;ratioP2;P2;SDS_P1;SDS_P2;PMS_P1;PMS_P2;Temp;Humidity;BMP_temperature;BMP_pressure;BME280_temperature;BME280_humidity;BME280_pressure;Samples;Min_cycle;Max_cycle;Signal;HPM_P1;HPM_P2
2022/10/17 00:01:39;;;;;;;11.03;6.37;;;9.50;93.70;;;9.55;61.13;96246.06;5085897;28;20461;-55
2022/10/17 00:04:08;;;;;;;7.60;6.10;;;9.50;93.80;;;9.54;60.54;96245.22;5085729;28;20478;-55
2022/10/17 00:06:35;;;;;;;9.10;5.90;;;9.40;93.70;;;9.54;61.22;96239.13;5085623;28;20445;-55
2022/10/17 00:09:02;;;;;;;7.77;5.83;;;9.50;94.10;;;9.53;60.98;96240.91;5085679;28;20492;-55
2022/10/17 00:11:30;;;;;;;8.07;6.63;;;9.40;94.00;;;9.52;60.50;96241.84;5084747;28;20450;-55
2022/10/17 00:13:57;;;;;;;8.60;7.30;;;9.50;94.10;;;9.51;60.69;96241.00;5085680;28;20494;-55
2022/10/17 00:16:24;;;;;;;10.60;7.27;;;9.40;94.00;;;9.50;60.73;96243.75;5084895;28;20511;-55
2022/10/17 00:18:52;;;;;;;8.73;7.00;;;9.40;94.20;;;9.49;61.06;96245.50;5083941;28;20523;-55
2022/10/17 00:21:20;;;;;;;7.27;6.20;;;9.40;94.20;;;9.51;61.05;96250.66;5085252;28;20461;-56
2022/10/17 00:23:48;;;;;;;9.93;6.90;;;9.40;94.40;;;9.52;60.50;96252.34;5085448;28;20531;-56
2022/10/17 00:26:15;;;;;;;6.57;5.90;;;9.40;94.30;;;9.52;60.83;96252.34;5085770;28;20954;-56
2022/10/17 00:28:43;;;;;;;6.93;5.57;;;9.40;94.50;;;9.51;60.68;96248.91;5085413;28;20470;-56
2022/10/17 00:31:10;;;;;;;13.97;7.60;;;9.40;94.40;;;9.51;61.10;96248.03;5085452;28;20480;-56
2022/10/17 00:33:38;;;;;;;12.43;6.93;;;9.40;94.50;;;9.50;61.04;96251.63;5085141;28;20489;-54
2022/10/17 00:36:06;;;;;;;8.77;6.33;;;9.40;94.70;;;9.48;61.60;96251.72;5085477;28;20464;-55
2022/10/17 00:38:35;;;;;;;12.97;6.60;;;9.40;94.80;;;9.46;61.20;96253.59;5085039;28;20466;-55
2022/10/17 00:41:02;;;;;;;7.60;6.67;;;9.40;94.80;;;9.45;61.20;96262.44;5085451;28;20446;-54
2022/10/17 00:43:29;;;;;;;9.03;6.90;;;9.40;94.80;;;9.44;61.14;96259.91;5085539;28;21024;-54
2022/10/17 00:45:57;;;;;;;13.17;7.60;;;9.40;94.80;;;9.43;61.30;96263.44;5088544;28;20458;-55
2022/10/17 00:48:24;;;;;;;11.17;7.90;;;9.40;94.80;;;9.40;61.02;96259.22;5088925;28;20539;-54
2022/10/17 00:50:51;;;;;;;21.77;11.07;;;9.30;94.70;;;9.39;61.36;96257.56;5089262;28;20885;-55
2022/10/17 00:53:18;;;;;;;19.90;11.33;;;9.30;94.70;;;9.36;60.71;96262.16;5081364;28;20486;-54
2022/10/17 00:55:49;;;;;;;17.17;10.20;;;9.30;94.70;;;9.31;61.21;96265.94;5089784;28;20453;-56
2022/10/17 00:58:16;;;;;;;14.40;9.53;;;9.30;94.70;;;9.28;61.30;96263.50;5086369;28;20458;-55
2022/10/17 01:00:44;;;;;;;22.80;10.40;;;9.20;94.70;;;9.23;60.77;96255.06;5089524;28;20461;-56
2022/10/17 01:03:11;;;;;;;23.07;11.40;;;9.20;94.60;;;9.20;61.12;96263.16;5088948;28;20492;-56
2022/10/17 01:05:38;;;;;;;22.07;10.87;;;9.20;94.60;;;9.16;61.17;96264.28;5082067;28;20461;-53
2022/10/17 01:08:06;;;;;;;14.90;10.03;;;9.10;94.60;;;9.12;61.67;96262.75;5089032;28;20458;-55
2022/10/17 01:10:37;;;;;;;15.83;9.60;;;9.00;95.00;;;9.04;61.59;96263.25;5089185;28;20472;-56
2022/10/17 01:13:11;;;;;;;19.37;11.10;;;9.00;94.90;;;8.95;62.37;96267.31;5086563;28;20485;-57
2022/10/17 01:15:49;;;;;;;19.20;10.53;;;8.90;95.50;;;8.87;61.89;96269.53;5088880;28;20507;-55
2022/10/17 01:18:26;;;;;;;19.37;10.40;;;8.80;95.30;;;8.82;61.78;96263.75;5084561;28;20476;-56
2022/10/17 01:21:08;;;;;;;19.70;10.30;;;8.80;95.70;;;8.81;62.05;96266.47;5088845;28;20449;-55
2022/10/17 01:24:04;;;;;;;17.10;9.70;;;8.70;95.70;;;8.78;62.65;96267.47;5084446;28;20462;-55
2022/10/17 01:26:42;;;;;;;17.63;11.40;;;8.70;95.90;;;8.79;62.25;96271.81;5071040;28;20457;-53
2022/10/17 01:29:42;;;;;;;11.30;8.53;;;8.70;95.80;;;8.78;62.61;96263.09;5088615;28;20470;-56
2022/10/17 01:32:14;;;;;;;15.37;10.20;;;8.70;96.10;;;8.77;62.08;96268.44;5067573;28;20989;-55
2022/10/17 01:34:45;;;;;;;16.67;9.97;;;8.70;96.10;;;8.76;62.33;96259.72;5088741;28;20750;-54
2022/10/17 01:37:16;;;;;;;16.90;10.33;;;8.70;96.20;;;8.77;62.66;96260.56;5088751;28;20453;-54
2022/10/17 01:39:46;;;;;;;20.03;10.17;;;8.70;96.20;;;8.75;61.99;96265.06;5088089;28;20473;-54
2022/10/17 01:42:17;;;;;;;21.53;10.00;;;8.70;96.20;;;8.74;62.85;96271.25;5088133;28;20510;-56
2022/10/17 01:44:48;;;;;;;12.80;9.27;;;8.70;96.40;;;8.72;62.90;96266.09;5088412;28;20469;-54
2022/10/17 01:47:19;;;;;;;11.73;8.67;;;8.70;96.50;;;8.71;62.42;96268.81;5088139;28;20453;-54
2022/10/17 01:49:47;;;;;;;18.67;10.77;;;8.60;96.40;;;8.71;62.47;96271.44;5088511;28;21148;-54
2022/10/17 01:52:15;;;;;;;12.60;9.90;;;8.70;96.40;;;8.68;62.55;96269.00;5084174;28;20459;-55
2022/10/17 01:54:44;;;;;;;22.70;10.40;;;8.70;96.60;;;8.68;62.66;96275.09;5088164;28;20473;-55
2022/10/17 01:57:20;;;;;;;15.67;9.43;;;8.60;96.60;;;8.66;63.01;96269.09;5081105;28;20450;-54
2022/10/17 01:59:48;;;;;;;15.37;10.87;;;8.60;96.70;;;8.65;63.09;96277.06;5088130;28;20465;-54
2022/10/17 02:02:17;;;;;;;20.87;10.63;;;8.60;96.90;;;8.65;62.84;96283.13;5087968;28;20465;-55
2022/10/17 02:04:44;;;;;;;28.67;10.63;;;8.60;96.70;;;8.63;62.65;96277.16;5087874;28;20473;-54
2022/10/17 02:07:13;;;;;;;15.23;10.30;;;8.60;96.80;;;8.63;62.83;96278.91;5080425;28;20463;-55
2022/10/17 02:09:40;;;;;;;23.17;11.27;;;8.60;96.90;;;8.63;63.26;96281.53;5087459;28;20523;-56
2022/10/17 02:12:34;;;;;;;17.10;10.93;;;8.60;97.00;;;8.61;63.61;96290.34;5087327;28;20450;-53
2022/10/17 02:15:16;;;;;;;12.40;9.23;;;8.60;97.10;;;8.59;62.94;96283.50;5085832;28;20539;-54
2022/10/17 02:17:50;;;;;;;11.50;8.43;;;8.60;97.00;;;8.58;62.93;96297.53;5078188;28;20439;-54
2022/10/17 02:20:21;;;;;;;19.83;10.57;;;8.50;97.00;;;8.57;63.33;96285.38;5087810;28;20954;-54
2022/10/17 02:22:52;;;;;;;15.80;10.10;;;8.50;97.00;;;8.55;63.28;96288.09;5087090;28;20758;-55
2022/10/17 02:25:27;;;;;;;16.40;9.77;;;8.50;97.30;;;8.54;63.33;96296.06;5087726;28;20450;-55
2022/10/17 02:27:56;;;;;;;24.57;8.87;;;8.50;97.00;;;8.51;62.79;96294.47;5087125;28;21026;-55
2022/10/17 02:30:29;;;;;;;15.80;9.70;;;8.50;97.20;;;8.51;63.75;96297.09;5087720;28;20450;-54
2022/10/17 02:32:59;;;;;;;17.87;10.17;;;8.50;97.30;;;8.49;63.41;96292.84;5087394;28;20477;-57
2022/10/17 02:35:29;;;;;;;15.57;10.60;;;8.50;97.40;;;8.47;63.03;96290.31;5087488;28;20791;-56
2022/10/17 02:37:56;;;;;;;10.23;8.60;;;8.40;97.30;;;8.46;63.11;96300.91;5086902;28;20449;-54
2022/10/17 02:40:24;;;;;;;17.43;8.30;;;8.40;97.30;;;8.43;63.82;96294.06;5087150;28;20458;-54
2022/10/17 02:42:51;;;;;;;11.50;9.40;;;8.40;97.50;;;8.42;63.80;96308.09;5087434;28;20450;-54
2022/10/17 02:45:19;;;;;;;16.33;7.00;;;8.40;97.60;;;8.39;63.32;96303.84;5087896;28;20827;-55
2022/10/17 02:47:51;;;;;;;19.43;7.30;;;8.30;97.30;;;8.35;63.20;96307.63;5087168;28;20461;-54
2022/10/17 02:50:21;;;;;;;11.10;7.40;;;8.30;97.50;;;8.35;63.28;96312.00;5087007;28;20534;-55
2022/10/17 02:52:52;;;;;;;13.17;7.13;;;8.30;97.40;;;8.34;63.65;96310.31;5086935;28;20530;-55
2022/10/17 02:55:22;;;;;;;11.03;7.07;;;8.30;97.30;;;8.30;63.88;96308.81;5087046;28;21024;-55
2022/10/17 02:57:50;;;;;;;10.90;6.97;;;8.30;97.70;;;8.29;63.75;96313.22;5080944;28;20450;-57
2022/10/17 03:00:18;;;;;;;14.53;6.47;;;8.30;97.60;;;8.26;63.58;96314.22;5086777;28;20449;-54
2022/10/17 03:02:47;;;;;;;12.83;7.23;;;8.30;97.80;;;8.26;63.45;96324.72;5086462;28;20503;-55
2022/10/17 03:05:17;;;;;;;17.57;7.50;;;8.20;97.70;;;8.25;64.36;96317.78;5086619;28;20461;-55
2022/10/17 03:07:46;;;;;;;11.20;7.37;;;8.20;97.80;;;8.24;63.55;96321.34;5086665;28;20450;-55
2022/10/17 03:10:13;;;;;;;16.67;8.53;;;8.20;97.80;;;8.25;64.17;96323.00;5086804;28;21174;-55
2022/10/17 03:12:40;;;;;;;15.03;8.60;;;8.20;97.90;;;8.24;63.46;96321.34;5084318;28;20450;-53
2022/10/17 03:15:09;;;;;;;11.77;9.17;;;8.20;97.80;;;8.26;63.53;96323.88;5086244;28;21083;-54
2022/10/17 03:17:36;;;;;;;10.27;7.60;;;8.20;97.80;;;8.27;63.27;96328.16;5082013;28;20450;-56
2022/10/17 03:20:04;;;;;;;24.80;8.10;;;8.20;97.80;;;8.28;63.60;96334.28;5085661;28;20462;-55
2022/10/17 03:22:31;;;;;;;17.43;9.00;;;8.20;97.80;;;8.26;63.32;96329.94;5086202;28;20446;-55
2022/10/17 03:25:00;;;;;;;12.87;7.67;;;8.20;97.80;;;8.24;63.54;96329.22;5086710;28;20474;-54
2022/10/17 03:27:27;;;;;;;11.40;8.50;;;8.20;97.80;;;8.25;63.68;96332.66;5086286;28;20523;-54
2022/10/17 03:29:54;;;;;;;14.53;7.50;;;8.20;97.70;;;8.23;63.49;96322.28;5086401;28;20473;-55
2022/10/17 03:32:22;;;;;;;15.33;7.67;;;8.20;97.70;;;8.23;63.94;96326.69;5086080;28;20827;-53
2022/10/17 03:34:49;;;;;;;13.53;7.07;;;8.20;97.70;;;8.23;63.52;96324.06;5086043;28;20489;-55
2022/10/17 03:37:16;;;;;;;9.80;7.60;;;8.20;97.80;;;8.22;63.23;96331.06;5086572;28;20457;-54
2022/10/17 03:39:43;;;;;;;18.00;8.03;;;8.20;97.60;;;8.21;63.60;96332.00;5086246;28;20478;-57
2022/10/17 03:42:12;;;;;;;14.97;7.10;;;8.20;97.60;;;8.21;63.77;96333.75;5086444;28;20527;-54
2022/10/17 03:44:39;;;;;;;11.77;6.90;;;8.20;97.70;;;8.18;63.64;96336.56;5085568;28;20469;-54
2022/10/17 03:47:06;;;;;;;21.80;7.87;;;8.20;97.70;;;8.16;63.58;96328.78;5078752;28;20449;-54
2022/10/17 03:49:34;;;;;;;20.20;7.60;;;8.10;97.70;;;8.15;63.91;96337.59;5085516;28;20477;-56
2022/10/17 03:52:01;;;;;;;20.93;9.00;;;8.10;97.80;;;8.14;63.65;96338.53;5085905;28;20457;-55
2022/10/17 03:54:29;;;;;;;13.47;7.80;;;8.10;97.80;;;8.14;63.95;96341.16;5085670;28;20493;-55
2022/10/17 03:56:56;;;;;;;17.03;7.67;;;8.10;97.90;;;8.13;63.87;96346.47;5081244;28;20450;-55
2022/10/17 03:59:25;;;;;;;16.43;7.10;;;8.10;97.70;;;8.11;63.64;96349.19;5085433;28;20569;-61
2022/10/17 04:01:52;;;;;;;10.07;7.40;;;8.10;97.70;;;8.06;63.54;96353.84;5085337;28;20465;-53
2022/10/17 04:04:19;;;;;;;11.80;7.77;;;8.10;97.60;;;8.01;63.00;96350.63;5080933;28;20626;-56
2022/10/17 04:06:47;;;;;;;10.20;6.70;;;8.00;97.50;;;7.96;63.44;96355.31;5072407;28;21068;-57
2022/10/17 04:09:14;;;;;;;10.13;7.97;;;8.00;97.80;;;7.94;63.94;96358.00;5071101;28;21177;-55
2022/10/17 04:11:41;;;;;;;17.00;7.93;;;7.90;97.90;;;7.95;64.25;96356.22;5080716;28;20811;-56
2022/10/17 04:14:10;;;;;;;18.90;7.83;;;7.90;98.00;;;7.95;63.99;96362.31;5085193;28;20493;-53
2022/10/17 04:16:39;;;;;;;19.70;10.80;;;7.90;98.20;;;7.94;63.71;96349.31;5080230;28;21018;-55
2022/10/17 04:19:06;;;;;;;11.83;8.20;;;7.90;98.00;;;7.94;64.17;96351.94;5072214;28;20481;-57
2022/10/17 04:21:33;;;;;;;19.30;9.13;;;7.90;98.50;;;7.93;64.93;96358.94;5080796;28;20458;-55
2022/10/17 04:24:01;;;;;;;9.73;6.90;;;7.90;98.50;;;7.90;63.92;96356.50;5078288;28;20482;-53
2022/10/17 04:26:28;;;;;;;17.20;8.40;;;7.90;98.00;;;7.87;63.65;96354.91;5078197;28;20548;-54
2022/10/17 04:28:55;;;;;;;15.60;7.40;;;7.90;98.00;;;7.82;64.06;96362.19;5076581;28;20944;-55
2022/10/17 04:31:23;;;;;;;10.10;6.77;;;7.80;98.00;;;7.78;64.04;96360.66;5081474;28;20454;-56
2022/10/17 04:33:52;;;;;;;10.80;6.17;;;7.80;97.90;;;7.72;64.03;96361.81;5083194;28;20501;-56
2022/10/17 04:36:21;;;;;;;13.53;7.70;;;7.70;97.90;;;7.68;64.30;96362.09;5079016;28;20488;-54
2022/10/17 04:38:48;;;;;;;14.50;7.00;;;7.70;98.00;;;7.64;64.63;96368.44;5080607;28;20577;-57
2022/10/17 04:41:17;;;;;;;11.80;7.60;;;7.70;98.30;;;7.62;64.18;96367.66;5077473;28;20511;-54
2022/10/17 04:43:45;;;;;;;19.03;8.53;;;7.70;98.50;;;7.61;64.76;96371.22;5078152;28;20471;-56
2022/10/17 04:46:13;;;;;;;17.40;7.47;;;7.60;98.80;;;7.63;65.06;96370.19;5083656;28;20955;-56
2022/10/17 04:48:41;;;;;;;18.87;10.47;;;7.60;98.90;;;7.67;64.83;96381.38;5069502;28;21053;-54
2022/10/17 04:51:11;;;;;;;21.80;10.60;;;7.70;98.90;;;7.69;64.83;96377.72;5069753;28;20454;-53
2022/10/17 04:53:39;;;;;;;21.83;9.70;;;7.70;98.90;;;7.71;64.96;96372.38;5081852;28;20501;-54
2022/10/17 04:56:10;;;;;;;45.80;12.20;;;7.70;98.80;;;7.73;64.92;96378.41;5083574;28;20450;-58
2022/10/17 04:58:37;;;;;;;15.23;8.97;;;7.70;98.80;;;7.74;64.66;96379.25;5080929;28;20551;-56
2022/10/17 05:01:06;;;;;;;14.87;7.43;;;7.70;98.80;;;7.75;64.28;96376.53;5085564;28;20518;-55
2022/10/17 05:03:33;;;;;;;19.10;7.97;;;7.70;98.90;;;7.76;65.03;96378.25;5084825;28;20562;-53
2022/10/17 05:06:05;;;;;;;13.80;8.90;;;7.70;98.80;;;7.76;64.65;96378.25;5077687;28;20446;-56
2022/10/17 05:08:34;;;;;;;12.60;8.20;;;7.70;98.70;;;7.76;65.00;96380.84;5082431;28;20552;-55
2022/10/17 05:11:02;;;;;;;16.50;9.07;;;7.80;98.70;;;7.76;65.29;96382.63;5077194;28;20446;-54
2022/10/17 05:13:29;;;;;;;29.53;8.20;;;7.70;98.90;;;7.76;63.96;96383.47;5082821;28;21152;-58
2022/10/17 05:15:59;;;;;;;31.87;8.53;;;7.80;98.70;;;7.77;65.24;96385.16;5084307;28;20461;-56
2022/10/17 05:18:27;;;;;;;21.53;10.50;;;7.80;98.80;;;7.80;64.36;96384.97;5082260;28;20464;-56
2022/10/17 05:20:54;;;;;;;27.93;9.93;;;7.80;98.80;;;7.85;64.47;96389.97;5084752;28;20470;-55
2022/10/17 05:23:21;;;;;;;26.80;10.10;;;7.80;98.80;;;7.89;64.63;96394.09;5077632;28;20481;-55
2022/10/17 05:25:54;;;;;;;17.27;8.43;;;7.80;98.80;;;7.93;64.90;96395.59;5084936;28;20518;-54
2022/10/17 05:28:22;;;;;;;28.07;10.30;;;7.90;98.80;;;7.99;64.37;96407.53;5077666;28;20515;-54
2022/10/17 05:30:49;;;;;;;23.70;10.67;;;7.90;98.80;;;8.05;64.62;96399.31;5085648;28;21037;-54
2022/10/17 05:33:16;;;;;;;24.33;9.00;;;8.00;98.90;;;8.10;64.35;96407.75;5087745;28;20470;-63
2022/10/17 05:35:44;;;;;;;19.30;10.30;;;8.10;98.90;;;8.16;64.61;96407.41;5088505;28;20446;-57
2022/10/17 05:38:11;;;;;;;20.40;10.13;;;8.10;98.90;;;8.22;64.32;96412.31;5089095;28;20535;-55
2022/10/17 05:40:38;;;;;;;29.93;9.80;;;8.20;98.80;;;8.29;63.99;96411.97;5088163;28;20507;-54
2022/10/17 05:43:07;;;;;;;25.77;9.17;;;8.20;98.70;;;8.37;64.04;96415.00;5088533;28;20468;-56
2022/10/17 05:45:35;;;;;;;14.83;8.00;;;8.30;98.50;;;8.45;64.32;96423.31;5088275;28;20462;-55
2022/10/17 05:48:02;;;;;;;9.20;7.90;;;8.40;98.60;;;8.57;63.67;96427.84;5087590;28;20930;-56
2022/10/17 05:50:29;;;;;;;17.77;8.83;;;8.50;98.50;;;8.73;63.50;96424.31;5088138;28;20445;-55
2022/10/17 05:52:57;;;;;;;16.17;9.27;;;8.60;98.10;;;8.96;63.17;96433.47;5084983;28;20446;-54
2022/10/17 05:55:24;;;;;;;11.93;8.83;;;8.80;98.00;;;9.35;62.41;96444.28;5087690;28;21068;-55
2022/10/17 05:57:52;;;;;;;10.73;7.53;;;9.10;97.90;;;9.78;61.95;96436.38;5083119;28;20450;-55
2022/10/17 06:00:21;;;;;;;20.87;8.43;;;9.50;97.60;;;10.26;60.90;96430.72;5085134;28;20979;-57
2022/10/17 06:02:49;;;;;;;21.13;8.40;;;9.90;97.20;;;10.76;61.06;96437.09;5088128;28;20461;-56
2022/10/17 06:05:16;;;;;;;20.07;8.63;;;10.40;96.90;;;11.29;60.46;96434.41;5088210;28;20458;-56
2022/10/17 06:07:44;;;;;;;18.70;8.90;;;10.90;96.80;;;11.84;59.10;96435.84;5087949;28;20541;-55
2022/10/17 06:10:13;;;;;;;16.90;9.23;;;11.40;96.00;;;12.37;58.54;96445.31;5088107;28;21045;-59
2022/10/17 06:12:41;;;;;;;18.20;8.60;;;11.90;95.40;;;12.87;57.68;96443.38;5081621;28;20545;-56
2022/10/17 06:15:10;;;;;;;21.37;9.50;;;12.50;94.70;;;13.40;56.33;96448.22;5084672;28;20569;-54
2022/10/17 06:17:38;;;;;;;16.43;10.30;;;13.00;93.90;;;13.92;55.03;96445.91;5085845;28;20819;-55
2022/10/17 06:20:07;;;;;;;18.93;9.10;;;13.50;92.80;;;14.46;54.08;96440.78;5087646;28;20489;-55
2022/10/17 06:22:35;;;;;;;25.33;10.13;;;14.00;92.10;;;14.98;53.13;96449.75;5087662;28;20454;-53
2022/10/17 06:25:02;;;;;;;14.37;7.90;;;14.50;91.10;;;15.49;52.00;96457.88;5087249;28;20556;-55
2022/10/17 06:27:30;;;;;;;13.00;8.20;;;15.00;89.70;;;15.96;50.50;96458.28;5087986;28;20446;-56
2022/10/17 06:29:57;;;;;;;17.60;7.90;;;15.50;87.10;;;16.39;50.22;96451.84;5080270;28;20466;-55
2022/10/17 06:32:24;;;;;;;18.13;7.90;;;15.90;85.50;;;16.83;49.29;96454.97;5085944;28;21096;-54
2022/10/17 06:34:53;;;;;;;11.20;7.83;;;16.30;83.60;;;17.30;48.55;96459.56;5087576;28;20489;-57
2022/10/17 06:37:20;;;;;;;25.20;9.50;;;16.80;81.50;;;17.77;46.96;96461.44;5087342;28;20593;-55
2022/10/17 06:39:48;;;;;;;19.03;7.93;;;17.20;79.00;;;18.27;47.49;96463.75;5087311;28;20513;-55
2022/10/17 06:42:15;;;;;;;15.93;9.30;;;17.70;79.50;;;18.78;46.38;96461.47;5086852;28;20464;-54
2022/10/17 06:44:43;;;;;;;10.50;7.90;;;18.20;75.90;;;19.28;45.97;96464.63;5086925;28;20469;-54
2022/10/17 06:47:11;;;;;;;14.33;7.37;;;18.60;75.00;;;19.75;45.44;96463.44;5086381;28;20464;-57
2022/10/17 06:49:38;;;;;;;16.93;7.80;;;19.10;73.70;;;20.23;44.29;96465.56;5086962;28;20470;-54
2022/10/17 06:52:07;;;;;;;20.57;10.90;;;19.60;71.50;;;20.65;43.53;96455.88;5085847;28;20455;-56
2022/10/17 06:54:34;;;;;;;14.43;9.10;;;20.00;68.90;;;21.06;43.12;96466.63;5087014;28;20497;-54
2022/10/17 06:57:01;;;;;;;15.73;10.13;;;20.40;68.80;;;21.56;41.67;96472.00;5082412;28;20443;-55
2022/10/17 06:59:29;;;;;;;17.93;7.53;;;20.80;65.20;;;21.93;40.26;96467.91;5086608;28;20997;-56
2022/10/17 07:01:56;;;;;;;17.00;8.57;;;21.30;61.30;;;22.31;39.63;96468.19;5086801;28;20533;-53
2022/10/17 07:04:23;;;;;;;16.43;7.80;;;21.70;60.70;;;22.69;39.79;96471.81;5086794;28;20549;-55
2022/10/17 07:06:51;;;;;;;15.27;9.93;;;22.10;60.50;;;23.08;38.94;96468.28;5086743;28;20507;-55
2022/10/17 07:09:19;;;;;;;18.60;7.97;;;22.60;59.40;;;23.50;39.12;96466.09;5086991;28;20524;-55
2022/10/17 07:11:47;;;;;;;14.47;8.87;;;23.00;58.30;;;23.97;37.49;96466.84;5086359;28;20815;-56
2022/10/17 07:14:14;;;;;;;14.70;9.17;;;23.60;57.10;;;24.46;37.29;96460.03;5086588;28;20572;-56
2022/10/17 07:16:41;;;;;;;22.33;9.80;;;24.10;56.40;;;24.97;36.40;96464.56;5084274;28;20442;-57
2022/10/17 07:19:09;;;;;;;13.20;9.33;;;24.70;55.20;;;25.40;36.11;96462.75;5085068;28;20474;-56
2022/10/17 07:21:36;;;;;;;15.60;9.23;;;25.20;54.10;;;25.84;35.32;96465.34;5086987;28;20999;-56
2022/10/17 07:24:05;;;;;;;17.40;9.90;;;25.70;52.60;;;26.22;34.44;96470.41;5086443;28;20485;-59
2022/10/17 07:26:34;;;;;;;15.37;10.20;;;26.20;51.20;;;26.54;34.32;96468.91;5086768;28;20485;-56
2022/10/17 07:29:01;;;;;;;10.60;9.27;;;26.50;50.00;;;26.79;33.05;96469.25;5086365;28;20478;-56
2022/10/17 07:31:29;;;;;;;12.17;10.40;;;26.90;48.90;;;26.97;32.79;96473.22;5086534;28;20445;-56
2022/10/17 07:33:56;;;;;;;18.13;9.90;;;27.10;47.80;;;27.13;32.58;96456.66;5086100;28;21039;-58
2022/10/17 07:36:24;;;;;;;11.97;9.03;;;27.40;47.20;;;27.38;32.17;96468.78;5086095;28;20899;-56
2022/10/17 07:38:51;;;;;;;12.30;9.20;;;27.70;46.60;;;27.65;31.46;96469.59;5086497;28;20474;-57
2022/10/17 07:41:19;;;;;;;12.67;9.40;;;27.90;45.90;;;27.82;30.92;96470.84;5086566;28;20535;-55
2022/10/17 07:43:48;;;;;;;14.83;9.37;;;28.10;45.30;;;27.96;30.76;96474.38;5085627;28;21054;-54
2022/10/17 07:46:15;;;;;;;12.30;10.27;;;28.20;44.50;;;28.05;30.40;96470.41;5086399;28;20465;-55
2022/10/17 07:48:42;;;;;;;11.90;9.40;;;28.20;44.00;;;28.07;30.19;96479.19;5085852;28;20939;-55
2022/10/17 07:51:10;;;;;;;17.40;9.73;;;28.10;43.70;;;28.00;29.70;96477.53;5078451;28;20450;-57
2022/10/17 07:53:38;;;;;;;17.50;11.10;;;28.00;43.30;;;27.86;30.22;96477.50;5081929;28;21087;-55
2022/10/17 07:56:06;;;;;;;15.67;10.97;;;27.80;43.00;;;27.70;30.00;96467.94;5081331;28;20500;-55
2022/10/17 07:58:34;;;;;;;13.63;10.33;;;27.60;42.80;;;27.57;29.83;96464.41;5081285;28;20979;-56
2022/10/17 08:01:03;;;;;;;18.03;10.63;;;27.40;42.60;;;27.41;29.69;96469.19;5086673;28;20481;-56
2022/10/17 08:03:30;;;;;;;17.23;9.30;;;27.20;42.50;;;27.08;30.01;96463.69;5080071;28;20489;-54
2022/10/17 08:05:58;;;;;;;13.07;8.90;;;27.00;42.50;;;26.88;29.94;96474.44;5086718;28;20449;-56
2022/10/17 08:08:26;;;;;;;13.57;10.40;;;26.70;42.70;;;26.84;30.29;96468.63;5085926;28;20552;-54
2022/10/17 08:10:54;;;;;;;18.53;11.50;;;26.50;42.90;;;26.84;30.17;96458.66;5086166;28;20599;-54
2022/10/17 08:13:21;;;;;;;19.97;11.10;;;26.50;42.90;;;26.86;29.79;96465.72;5085270;28;20554;-55
2022/10/17 08:15:48;;;;;;;14.73;10.60;;;26.50;42.50;;;26.76;29.58;96452.63;5077641;28;20485;-59
2022/10/17 08:18:17;;;;;;;32.73;11.40;;;26.40;42.30;;;26.70;29.61;96466.94;5080429;28;20469;-54
2022/10/17 08:20:45;;;;;;;20.30;10.27;;;26.30;42.70;;;26.66;28.78;96463.78;5086028;28;20465;-55
2022/10/17 08:23:12;;;;;;;54.07;11.80;;;26.20;40.70;;;26.46;29.94;96459.13;5079786;28;20559;-57
2022/10/17 08:25:39;;;;;;;16.07;11.37;;;26.10;42.70;;;26.56;30.31;96456.03;5085865;28;20445;-55
2022/10/17 08:28:07;;;;;;;20.97;11.63;;;26.00;42.60;;;26.81;29.58;96452.84;5078322;28;20503;-55
2022/10/17 08:30:34;;;;;;;14.97;11.20;;;26.20;42.70;;;27.01;29.71;96447.50;5085672;28;20515;-55
2022/10/17 08:33:01;;;;;;;17.10;11.40;;;26.40;42.90;;;27.17;28.67;96439.00;5085350;28;20452;-56
2022/10/17 08:35:30;;;;;;;20.90;11.57;;;26.60;42.30;;;27.26;29.20;96444.19;5085773;28;20950;-55
2022/10/17 08:38:00;;;;;;;18.80;12.73;;;26.60;42.00;;;27.44;29.77;96438.22;5085369;28;20839;-56
2022/10/17 08:40:29;;;;;;;27.63;11.67;;;26.80;42.40;;;27.78;29.66;96442.56;5078570;28;20477;-55
2022/10/17 08:43:28;;;;;;;20.70;11.37;;;27.10;42.80;;;28.23;29.18;96440.00;5085625;28;20587;-56
2022/10/17 08:45:59;;;;;;;20.33;10.93;;;27.40;42.70;;;28.63;29.58;96439.06;5078269;28;20810;-57
2022/10/17 08:48:27;;;;;;;12.23;10.93;;;27.90;42.30;;;28.95;28.59;96445.38;5085337;28;20591;-55
2022/10/17 08:50:58;;;;;;;14.30;11.20;;;28.30;42.00;;;29.25;28.30;96446.63;5078204;28;20545;-54
2022/10/17 08:53:29;;;;;;;15.20;10.10;;;28.50;41.50;;;29.42;27.75;96444.22;5084599;28;20466;-58
2022/10/17 08:55:56;;;;;;;16.30;10.53;;;28.80;40.50;;;29.52;27.78;96452.69;5075790;28;20550;-55
2022/10/17 08:58:25;;;;;;;24.53;11.40;;;28.90;40.40;;;29.62;27.55;96447.63;5082598;28;20896;-55
2022/10/17 09:01:02;;;;;;;15.33;10.63;;;29.00;40.10;;;29.83;28.07;96459.16;5085355;28;20445;-54
2022/10/17 09:03:51;;;;;;;26.30;10.33;;;29.20;40.20;;;29.97;26.80;96452.53;5085194;28;20474;-54
2022/10/17 09:06:28;;;;;;;13.30;9.27;;;29.40;38.40;;;29.78;26.36;96453.53;5086935;28;20481;-57
2022/10/17 09:09:11;;;;;;;16.37;9.07;;;29.30;38.70;;;29.64;26.63;96450.13;5089936;28;21214;-55
2022/10/17 09:11:51;;;;;;;19.60;8.00;;;29.10;37.90;;;29.56;26.15;96458.50;5085850;28;20449;-57
2022/10/17 09:14:43;;;;;;;15.83;9.60;;;29.00;37.10;;;29.45;26.64;96455.47;5083577;28;20996;-52
2022/10/17 09:17:19;;;;;;;8.43;7.50;;;28.90;37.70;;;29.54;26.56;96450.59;5083821;28;20941;-55
2022/10/17 09:19:55;;;;;;;11.67;7.80;;;28.90;37.70;;;29.72;26.74;96449.00;5085379;28;20488;-55
2022/10/17 09:22:26;;;;;;;10.67;8.60;;;29.10;37.60;;;29.88;25.85;96448.44;5089356;28;20640;-60
2022/10/17 09:24:55;;;;;;;12.83;7.93;;;29.30;37.70;;;30.04;26.07;96449.78;5089227;28;20473;-56
2022/10/17 09:27:24;;;;;;;11.10;7.57;;;29.50;37.70;;;30.20;26.11;96443.75;5088601;28;20835;-55
2022/10/17 09:29:55;;;;;;;19.80;7.57;;;29.60;37.10;;;30.33;25.57;96445.47;5088791;28;20477;-55
2022/10/17 09:32:24;;;;;;;8.47;7.00;;;29.80;36.70;;;30.51;25.08;96443.84;5086163;28;20441;-54
2022/10/17 09:34:53;;;;;;;16.17;8.10;;;29.90;36.70;;;30.68;25.12;96447.59;5088064;28;20556;-55
2022/10/17 09:37:31;;;;;;;17.87;6.77;;;30.10;36.40;;;30.81;24.68;96453.91;5088359;28;20456;-55
2022/10/17 09:39:58;;;;;;;19.93;5.70;;;30.20;35.40;;;30.90;24.88;96447.09;5088822;28;20461;-56
2022/10/17 09:42:26;;;;;;;12.50;6.60;;;30.30;35.20;;;31.02;22.84;96434.44;5090133;28;20449;-55
2022/10/17 09:45:05;;;;;;;8.07;6.00;;;30.40;33.30;;;30.86;23.88;96435.88;5088179;28;21039;-55
2022/10/17 09:47:35;;;;;;;7.97;5.70;;;30.40;33.30;;;30.67;24.10;96431.53;5086030;28;20863;-55
2022/10/17 09:50:02;;;;;;;14.87;5.07;;;30.20;33.60;;;30.64;23.19;96432.81;5088240;28;20526;-55
2022/10/17 09:52:34;;;;;;;8.80;4.83;;;30.10;33.10;;;30.52;23.82;96437.34;5085372;28;20943;-55
2022/10/17 09:55:04;;;;;;;6.17;4.27;;;30.00;33.50;;;30.55;23.39;96434.16;5087871;28;20493;-57
2022/10/17 09:57:52;;;;;;;8.50;4.17;;;29.90;33.40;;;30.65;21.72;96422.78;5074446;28;20437;-55
2022/10/17 10:00:23;;;;;;;7.00;3.90;;;30.00;31.40;;;30.52;22.88;96423.78;5085296;28;20452;-54
2022/10/17 10:02:50;;;;;;;10.90;5.60;;;30.00;32.50;;;30.35;22.66;96418.94;5088267;28;20449;-57
2022/10/17 10:05:18;;;;;;;6.87;4.67;;;29.90;32.00;;;30.32;23.18;96423.97;5086447;28;20473;-54
2022/10/17 10:08:02;;;;;;;6.00;4.50;;;29.70;32.50;;;30.42;22.29;96415.34;5088565;28;20442;-55
2022/10/17 10:10:30;;;;;;;7.73;3.83;;;29.80;31.80;;;30.48;22.48;96412.53;5084712;28;20515;-56
2022/10/17 10:13:19;;;;;;;8.23;5.10;;;29.80;32.00;;;30.53;22.17;96407.25;5087615;28;20774;-56
2022/10/17 10:15:46;;;;;;;7.23;4.20;;;29.90;31.40;;;30.62;22.30;96410.50;5080514;28;20477;-56
2022/10/17 10:18:32;;;;;;;13.80;4.73;;;30.00;31.80;;;30.67;21.55;96407.09;5082792;28;20522;-54
2022/10/17 10:21:09;;;;;;;9.97;3.67;;;30.00;31.20;;;30.68;21.38;96406.84;5084013;28;20524;-57
2022/10/17 10:23:39;;;;;;;8.23;4.73;;;30.10;30.90;;;30.72;22.11;96402.63;5082274;28;20473;-57
2022/10/17 10:26:21;;;;;;;6.30;3.67;;;30.10;31.20;;;30.78;21.61;96400.03;5087516;28;20441;-55
2022/10/17 10:28:54;;;;;;;8.00;3.60;;;30.10;30.60;;;30.73;21.41;96393.41;5088335;28;20484;-56
2022/10/17 10:31:27;;;;;;;3.20;2.90;;;30.10;30.10;;;30.73;21.22;96387.16;5087311;28;20534;-56